sensor_id;sensor_type;location;lat;lon;timestamp;P1;durP1;ratioP1;P2;durP2;ratioP2
66145;SDS011;52948;60.040;30.320;2023-06-10T00:03:40;1.63;;;0.88;;
66145;SDS011;52948;60.040;30.320;2023-06-10T00:08:43;1.55;;;0.80;;
66145;SDS011;52948;60.040;30.320;2023-06-10T00:13:45;1.13;;;0.70;;
66145;SDS011;52948;60.040;30.320;2023-06-10T00:18:47;1.30;;;0.88;;
66145;SDS011;52948;60.040;30.320;2023-06-10T00:23:50;1.10;;;0.90;;
66145;SDS011;52948;60.040;30.320;2023-06-10T00:28:53;1.23;;;0.82;;
66145;SDS011;52948;60.040;30.320;2023-06-10T00:33:56;1.10;;;0.80;;
66145;SDS011;52948;60.040;30.320;2023-06-10T00:39:00;0.82;;;0.60;;
66145;SDS011;52948;60.040;30.320;2023-06-10T00:44:03;0.70;;;0.70;;
66145;SDS011;52948;60.040;30.320;2023-06-10T00:49:05;0.95;;;0.95;;
66145;SDS011;52948;60.040;30.320;2023-06-10T00:54:08;2.60;;;1.10;;
66145;SDS011;52948;60.040;30.320;2023-06-10T00:59:10;1.33;;;0.80;;
66145;SDS011;52948;60.040;30.320;2023-06-10T01:04:12;1.92;;;0.93;;
66145;SDS011;52948;60.040;30.320;2023-06-10T01:09:18;0.60;;;0.60;;
66145;SDS011;52948;60.040;30.320;2023-06-10T01:14:34;1.33;;;0.70;;
66145;SDS011;52948;60.040;30.320;2023-06-10T01:19:38;0.85;;;0.70;;
66145;SDS011;52948;60.040;30.320;2023-06-10T01:24:42;1.05;;;0.90;;
66145;SDS011;52948;60.040;30.320;2023-06-10T01:29:45;1.10;;;0.85;;
66145;SDS011;52948;60.040;30.320;2023-06-10T01:34:50;1.15;;;0.70;;
66145;SDS011;52948;60.040;30.320;2023-06-10T01:39:55;1.10;;;0.85;;
66145;SDS011;52948;60.040;30.320;2023-06-10T01:44:59;1.30;;;0.98;;
66145;SDS011;52948;60.040;30.320;2023-06-10T01:50:01;0.80;;;0.70;;
66145;SDS011;52948;60.040;30.320;2023-06-10T01:55:06;0.85;;;0.80;;
66145;SDS011;52948;60.040;30.320;2023-06-10T02:00:08;1.98;;;0.80;;
66145;SDS011;52948;60.040;30.320;2023-06-10T02:05:18;1.20;;;0.73;;
66145;SDS011;52948;60.040;30.320;2023-06-10T02:10:21;1.58;;;0.82;;
66145;SDS011;52948;60.040;30.320;2023-06-10T02:15:23;2.42;;;0.90;;
66145;SDS011;52948;60.040;30.320;2023-06-10T02:20:26;0.80;;;0.80;;
66145;SDS011;52948;60.040;30.320;2023-06-10T02:25:28;1.20;;;0.90;;
66145;SDS011;52948;60.040;30.320;2023-06-10T02:30:30;3.28;;;0.85;;
66145;SDS011;52948;60.040;30.320;2023-06-10T02:35:33;1.50;;;0.75;;
66145;SDS011;52948;60.040;30.320;2023-06-10T02:40:35;1.63;;;0.98;;
66145;SDS011;52948;60.040;30.320;2023-06-10T02:45:37;1.10;;;1.00;;
66145;SDS011;52948;60.040;30.320;2023-06-10T02:50:42;1.40;;;1.10;;
66145;SDS011;52948;60.040;30.320;2023-06-10T02:55:54;1.92;;;1.20;;
66145;SDS011;52948;60.040;30.320;2023-06-10T03:00:56;3.70;;;0.90;;
66145;SDS011;52948;60.040;30.320;2023-06-10T03:06:01;2.15;;;1.02;;
66145;SDS011;52948;60.040;30.320;2023-06-10T03:11:05;1.17;;;0.93;;
66145;SDS011;52948;60.040;30.320;2023-06-10T03:16:09;1.10;;;0.80;;
66145;SDS011;52948;60.040;30.320;2023-06-10T03:21:13;2.10;;;1.10;;
66145;SDS011;52948;60.040;30.320;2023-06-10T03:26:16;3.00;;;0.98;;
66145;SDS011;52948;60.040;30.320;2023-06-10T03:31:22;1.00;;;0.88;;
66145;SDS011;52948;60.040;30.320;2023-06-10T03:36:27;1.90;;;1.10;;
66145;SDS011;52948;60.040;30.320;2023-06-10T03:41:32;1.85;;;1.00;;
66145;SDS011;52948;60.040;30.320;2023-06-10T03:46:36;1.20;;;0.93;;
66145;SDS011;52948;60.040;30.320;2023-06-10T03:51:39;6.90;;;1.30;;
66145;SDS011;52948;60.040;30.320;2023-06-10T03:56:42;6.20;;;1.05;;
66145;SDS011;52948;60.040;30.320;2023-06-10T04:01:44;3.03;;;1.05;;
66145;SDS011;52948;60.040;30.320;2023-06-10T04:06:47;1.02;;;1.00;;
66145;SDS011;52948;60.040;30.320;2023-06-10T04:11:50;1.33;;;1.10;;
66145;SDS011;52948;60.040;30.320;2023-06-10T04:16:53;1.30;;;1.10;;
66145;SDS011;52948;60.040;30.320;2023-06-10T04:21:55;1.70;;;1.20;;
66145;SDS011;52948;60.040;30.320;2023-06-10T04:26:57;1.38;;;0.90;;
66145;SDS011;52948;60.040;30.320;2023-06-10T04:32:01;1.05;;;0.65;;
66145;SDS011;52948;60.040;30.320;2023-06-10T04:37:04;1.73;;;1.00;;
66145;SDS011;52948;60.040;30.320;2023-06-10T04:42:07;1.30;;;0.90;;
66145;SDS011;52948;60.040;30.320;2023-06-10T04:47:10;1.17;;;0.70;;
66145;SDS011;52948;60.040;30.320;2023-06-10T04:52:14;0.80;;;0.77;;
66145;SDS011;52948;60.040;30.320;2023-06-10T04:57:17;0.90;;;0.60;;
66145;SDS011;52948;60.040;30.320;2023-06-10T05:02:19;1.73;;;0.80;;
66145;SDS011;52948;60.040;30.320;2023-06-10T05:07:21;0.57;;;0.55;;
66145;SDS011;52948;60.040;30.320;2023-06-10T05:12:24;1.17;;;0.60;;
66145;SDS011;52948;60.040;30.320;2023-06-10T05:17:27;0.70;;;0.47;;
66145;SDS011;52948;60.040;30.320;2023-06-10T05:22:30;1.13;;;0.77;;
66145;SDS011;52948;60.040;30.320;2023-06-10T05:27:32;0.73;;;0.60;;
66145;SDS011;52948;60.040;30.320;2023-06-10T05:32:34;0.80;;;0.70;;
66145;SDS011;52948;60.040;30.320;2023-06-10T05:37:36;0.70;;;0.60;;
66145;SDS011;52948;60.040;30.320;2023-06-10T05:42:39;0.65;;;0.60;;
66145;SDS011;52948;60.040;30.320;2023-06-10T05:47:41;0.73;;;0.70;;
66145;SDS011;52948;60.040;30.320;2023-06-10T05:52:43;0.85;;;0.80;;
66145;SDS011;52948;60.040;30.320;2023-06-10T05:57:45;0.93;;;0.70;;
66145;SDS011;52948;60.040;30.320;2023-06-10T06:02:48;1.08;;;0.98;;
66145;SDS011;52948;60.040;30.320;2023-06-10T06:07:50;0.70;;;0.70;;
66145;SDS011;52948;60.040;30.320;2023-06-10T06:12:52;0.80;;;0.80;;
66145;SDS011;52948;60.040;30.320;2023-06-10T06:17:54;1.67;;;0.70;;
66145;SDS011;52948;60.040;30.320;2023-06-10T06:22:57;1.13;;;0.80;;
66145;SDS011;52948;60.040;30.320;2023-06-10T06:27:59;0.88;;;0.80;;
66145;SDS011;52948;60.040;30.320;2023-06-10T06:33:02;0.98;;;0.88;;
66145;SDS011;52948;60.040;30.320;2023-06-10T06:38:04;0.75;;;0.70;;
66145;SDS011;52948;60.040;30.320;2023-06-10T06:43:07;1.95;;;0.80;;
66145;SDS011;52948;60.040;30.320;2023-06-10T06:48:19;1.52;;;0.60;;
66145;SDS011;52948;60.040;30.320;2023-06-10T06:53:21;1.00;;;0.73;;
66145;SDS011;52948;60.040;30.320;2023-06-10T06:58:23;0.85;;;0.77;;
66145;SDS011;52948;60.040;30.320;2023-06-10T07:03:25;1.45;;;0.70;;
66145;SDS011;52948;60.040;30.320;2023-06-10T07:08:27;1.17;;;1.05;;
66145;SDS011;52948;60.040;30.320;2023-06-10T07:13:30;0.80;;;0.70;;
66145;SDS011;52948;60.040;30.320;2023-06-10T07:18:32;0.90;;;0.75;;
66145;SDS011;52948;60.040;30.320;2023-06-10T07:23:34;0.82;;;0.80;;
66145;SDS011;52948;60.040;30.320;2023-06-10T07:28:37;2.22;;;0.75;;
66145;SDS011;52948;60.040;30.320;2023-06-10T07:33:43;0.75;;;0.60;;
66145;SDS011;52948;60.040;30.320;2023-06-10T07:38:45;1.60;;;1.10;;
66145;SDS011;52948;60.040;30.320;2023-06-10T07:43:47;1.05;;;0.90;;
66145;SDS011;52948;60.040;30.320;2023-06-10T07:48:49;1.70;;;0.98;;
66145;SDS011;52948;60.040;30.320;2023-06-10T07:53:52;0.52;;;0.52;;
66145;SDS011;52948;60.040;30.320;2023-06-10T07:58:54;0.65;;;0.65;;
66145;SDS011;52948;60.040;30.320;2023-06-10T08:03:56;1.23;;;0.90;;
66145;SDS011;52948;60.040;30.320;2023-06-10T08:08:58;1.70;;;0.98;;
66145;SDS011;52948;60.040;30.320;2023-06-10T08:14:01;0.80;;;0.80;;
66145;SDS011;52948;60.040;30.320;2023-06-10T08:19:03;0.80;;;0.80;;
66145;SDS011;52948;60.040;30.320;2023-06-10T08:24:06;1.48;;;0.85;;
66145;SDS011;52948;60.040;30.320;2023-06-10T08:29:09;1.02;;;0.90;;
66145;SDS011;52948;60.040;30.320;2023-06-10T08:34:13;0.80;;;0.80;;
66145;SDS011;52948;60.040;30.320;2023-06-10T08:39:15;0.57;;;0.50;;
66145;SDS011;52948;60.040;30.320;2023-06-10T08:44:22;0.80;;;0.80;;
66145;SDS011;52948;60.040;30.320;2023-06-10T08:49:32;1.70;;;0.80;;
66145;SDS011;52948;60.040;30.320;2023-06-10T08:54:36;0.73;;;0.60;;
66145;SDS011;52948;60.040;30.320;2023-06-10T08:59:41;0.50;;;0.50;;
66145;SDS011;52948;60.040;30.320;2023-06-10T09:04:43;0.70;;;0.70;;
66145;SDS011;52948;60.040;30.320;2023-06-10T09:09:46;1.05;;;0.65;;
66145;SDS011;52948;60.040;30.320;2023-06-10T09:14:50;0.68;;;0.63;;
66145;SDS011;52948;60.040;30.320;2023-06-10T09:19:52;1.75;;;0.80;;
66145;SDS011;52948;60.040;30.320;2023-06-10T09:25:07;0.52;;;0.52;;
66145;SDS011;52948;60.040;30.320;2023-06-10T09:30:10;0.63;;;0.63;;
66145;SDS011;52948;60.040;30.320;2023-06-10T09:35:32;0.77;;;0.70;;
66145;SDS011;52948;60.040;30.320;2023-06-10T09:40:34;5.43;;;0.90;;
66145;SDS011;52948;60.040;30.320;2023-06-10T09:45:50;3.80;;;0.70;;
66145;SDS011;52948;60.040;30.320;2023-06-10T09:50:55;0.70;;;0.70;;
66145;SDS011;52948;60.040;30.320;2023-06-10T09:55:57;1.63;;;0.73;;
66145;SDS011;52948;60.040;30.320;2023-06-10T10:01:00;3.35;;;1.00;;
66145;SDS011;52948;60.040;30.320;2023-06-10T10:06:15;1.65;;;0.85;;
66145;SDS011;52948;60.040;30.320;2023-06-10T10:11:20;0.73;;;0.73;;
66145;SDS011;52948;60.040;30.320;2023-06-10T10:16:29;0.73;;;0.60;;
66145;SDS011;52948;60.040;30.320;2023-06-10T10:21:37;0.80;;;0.60;;
66145;SDS011;52948;60.040;30.320;2023-06-10T10:26:49;1.15;;;0.75;;
66145;SDS011;52948;60.040;30.320;2023-06-10T10:31:52;0.73;;;0.70;;
66145;SDS011;52948;60.040;30.320;2023-06-10T10:36:56;0.70;;;0.70;;
66145;SDS011;52948;60.040;30.320;2023-06-10T10:41:59;1.73;;;0.57;;
66145;SDS011;52948;60.040;30.320;2023-06-10T10:47:02;0.55;;;0.50;;
66145;SDS011;52948;60.040;30.320;2023-06-10T10:52:09;0.52;;;0.40;;
66145;SDS011;52948;60.040;30.320;2023-06-10T11:07:54;0.65;;;0.40;;
66145;SDS011;52948;60.040;30.320;2023-06-10T11:12:57;3.08;;;0.60;;
66145;SDS011;52948;60.040;30.320;2023-06-10T11:18:10;1.73;;;0.55;;
66145;SDS011;52948;60.040;30.320;2023-06-10T11:28:30;1.48;;;0.60;;
66145;SDS011;52948;60.040;30.320;2023-06-10T11:33:32;1.95;;;0.63;;
66145;SDS011;52948;60.040;30.320;2023-06-10T11:38:35;0.80;;;0.65;;
66145;SDS011;52948;60.040;30.320;2023-06-10T11:43:42;1.02;;;0.60;;
66145;SDS011;52948;60.040;30.320;2023-06-10T11:48:51;1.02;;;0.43;;
66145;SDS011;52948;60.040;30.320;2023-06-10T11:53:54;1.33;;;0.40;;
66145;SDS011;52948;60.040;30.320;2023-06-10T11:59:01;1.40;;;0.60;;
66145;SDS011;52948;60.040;30.320;2023-06-10T12:04:09;0.35;;;0.30;;
66145;SDS011;52948;60.040;30.320;2023-06-10T12:20:01;0.70;;;0.50;;
66145;SDS011;52948;60.040;30.320;2023-06-10T12:25:05;1.67;;;0.60;;
66145;SDS011;52948;60.040;30.320;2023-06-10T12:30:08;0.57;;;0.50;;
66145;SDS011;52948;60.040;30.320;2023-06-10T12:35:12;0.45;;;0.30;;
66145;SDS011;52948;60.040;30.320;2023-06-10T12:40:25;1.23;;;0.65;;
66145;SDS011;52948;60.040;30.320;2023-06-10T12:45:32;0.50;;;0.50;;
66145;SDS011;52948;60.040;30.320;2023-06-10T12:50:39;0.85;;;0.63;;
66145;SDS011;52948;60.040;30.320;2023-06-10T12:55:42;0.40;;;0.40;;
66145;SDS011;52948;60.040;30.320;2023-06-10T13:00:47;1.40;;;1.10;;
66145;SDS011;52948;60.040;30.320;2023-06-10T13:05:50;1.35;;;0.90;;
66145;SDS011;52948;60.040;30.320;2023-06-10T13:10:52;1.33;;;1.23;;
66145;SDS011;52948;60.040;30.320;2023-06-10T13:15:55;1.48;;;1.38;;
66145;SDS011;52948;60.040;30.320;2023-06-10T13:20:57;2.42;;;1.60;;
66145;SDS011;52948;60.040;30.320;2023-06-10T13:25:59;0.88;;;0.85;;
66145;SDS011;52948;60.040;30.320;2023-06-10T13:31:01;1.50;;;1.40;;
66145;SDS011;52948;60.040;30.320;2023-06-10T13:36:03;1.75;;;1.55;;
66145;SDS011;52948;60.040;30.320;2023-06-10T13:41:06;3.63;;;1.80;;
66145;SDS011;52948;60.040;30.320;2023-06-10T13:46:08;3.15;;;1.90;;
66145;SDS011;52948;60.040;30.320;2023-06-10T13:51:10;2.53;;;1.88;;
66145;SDS011;52948;60.040;30.320;2023-06-10T13:56:13;1.67;;;1.58;;
66145;SDS011;52948;60.040;30.320;2023-06-10T14:01:16;2.00;;;1.80;;
66145;SDS011;52948;60.040;30.320;2023-06-10T14:11:45;1.85;;;1.50;;
66145;SDS011;52948;60.040;30.320;2023-06-10T14:16:49;2.53;;;1.60;;
66145;SDS011;52948;60.040;30.320;2023-06-10T14:21:51;3.47;;;1.70;;
66145;SDS011;52948;60.040;30.320;2023-06-10T14:26:55;1.98;;;1.88;;
66145;SDS011;52948;60.040;30.320;2023-06-10T14:32:00;2.85;;;1.65;;
66145;SDS011;52948;60.040;30.320;2023-06-10T14:37:02;1.40;;;1.27;;
66145;SDS011;52948;60.040;30.320;2023-06-10T14:42:09;1.60;;;1.50;;
66145;SDS011;52948;60.040;30.320;2023-06-10T14:47:12;1.42;;;1.33;;
66145;SDS011;52948;60.040;30.320;2023-06-10T14:52:14;1.52;;;1.40;;
66145;SDS011;52948;60.040;30.320;2023-06-10T14:57:17;3.33;;;1.33;;
66145;SDS011;52948;60.040;30.320;2023-06-10T15:02:19;1.42;;;1.33;;
66145;SDS011;52948;60.040;30.320;2023-06-10T15:07:21;2.65;;;1.25;;
66145;SDS011;52948;60.040;30.320;2023-06-10T15:12:23;1.50;;;1.30;;
66145;SDS011;52948;60.040;30.320;2023-06-10T15:17:26;2.05;;;1.30;;
66145;SDS011;52948;60.040;30.320;2023-06-10T15:22:29;0.90;;;0.90;;
66145;SDS011;52948;60.040;30.320;2023-06-10T15:27:31;2.17;;;1.40;;
66145;SDS011;52948;60.040;30.320;2023-06-10T15:32:33;1.00;;;0.90;;
66145;SDS011;52948;60.040;30.320;2023-06-10T15:37:35;1.75;;;1.40;;
66145;SDS011;52948;60.040;30.320;2023-06-10T15:42:38;1.20;;;1.10;;
66145;SDS011;52948;60.040;30.320;2023-06-10T15:47:40;0.85;;;0.82;;
66145;SDS011;52948;60.040;30.320;2023-06-10T15:52:43;3.60;;;1.10;;
66145;SDS011;52948;60.040;30.320;2023-06-10T15:57:45;1.20;;;1.08;;
66145;SDS011;52948;60.040;30.320;2023-06-10T16:02:48;2.10;;;1.40;;
66145;SDS011;52948;60.040;30.320;2023-06-10T16:07:50;0.80;;;0.80;;
66145;SDS011;52948;60.040;30.320;2023-06-10T16:12:52;1.42;;;1.10;;
66145;SDS011;52948;60.040;30.320;2023-06-10T16:17:54;1.30;;;1.20;;
66145;SDS011;52948;60.040;30.320;2023-06-10T16:22:57;1.48;;;1.10;;
66145;SDS011;52948;60.040;30.320;2023-06-10T16:27:59;2.78;;;1.33;;
66145;SDS011;52948;60.040;30.320;2023-06-10T16:33:02;1.67;;;0.85;;
66145;SDS011;52948;60.040;30.320;2023-06-10T16:38:04;1.88;;;0.90;;
66145;SDS011;52948;60.040;30.320;2023-06-10T16:43:06;0.80;;;0.70;;
66145;SDS011;52948;60.040;30.320;2023-06-10T16:48:09;1.83;;;0.73;;
66145;SDS011;52948;60.040;30.320;2023-06-10T16:53:11;1.05;;;0.90;;
66145;SDS011;52948;60.040;30.320;2023-06-10T16:58:13;1.42;;;1.33;;
66145;SDS011;52948;60.040;30.320;2023-06-10T17:03:15;1.65;;;1.13;;
66145;SDS011;52948;60.040;30.320;2023-06-10T17:08:17;0.60;;;0.60;;
66145;SDS011;52948;60.040;30.320;2023-06-10T17:13:20;2.15;;;1.58;;
66145;SDS011;52948;60.040;30.320;2023-06-10T17:18:23;1.77;;;1.23;;
66145;SDS011;52948;60.040;30.320;2023-06-10T17:23:25;1.23;;;0.85;;
66145;SDS011;52948;60.040;30.320;2023-06-10T17:28:27;1.02;;;0.95;;
66145;SDS011;52948;60.040;30.320;2023-06-10T17:33:29;1.10;;;0.88;;
66145;SDS011;52948;60.040;30.320;2023-06-10T17:38:31;3.45;;;1.20;;
66145;SDS011;52948;60.040;30.320;2023-06-10T17:43:33;0.80;;;0.73;;
66145;SDS011;52948;60.040;30.320;2023-06-10T17:48:36;3.83;;;1.48;;
66145;SDS011;52948;60.040;30.320;2023-06-10T17:53:38;1.90;;;0.90;;
66145;SDS011;52948;60.040;30.320;2023-06-10T17:58:40;1.17;;;1.08;;
66145;SDS011;52948;60.040;30.320;2023-06-10T18:03:43;2.28;;;1.10;;
66145;SDS011;52948;60.040;30.320;2023-06-10T18:08:45;1.40;;;1.15;;
66145;SDS011;52948;60.040;30.320;2023-06-10T18:13:48;1.58;;;1.20;;
66145;SDS011;52948;60.040;30.320;2023-06-10T18:18:51;1.60;;;1.50;;
66145;SDS011;52948;60.040;30.320;2023-06-10T18:23:53;1.27;;;1.13;;
66145;SDS011;52948;60.040;30.320;2023-06-10T18:28:55;3.38;;;1.63;;
66145;SDS011;52948;60.040;30.320;2023-06-10T18:33:57;1.20;;;1.10;;
66145;SDS011;52948;60.040;30.320;2023-06-10T18:39:00;1.95;;;1.48;;
66145;SDS011;52948;60.040;30.320;2023-06-10T18:44:03;3.13;;;1.40;;
66145;SDS011;52948;60.040;30.320;2023-06-10T18:49:05;2.83;;;1.92;;
66145;SDS011;52948;60.040;30.320;2023-06-10T18:54:07;4.10;;;2.00;;
66145;SDS011;52948;60.040;30.320;2023-06-10T18:59:09;3.38;;;2.35;;
66145;SDS011;52948;60.040;30.320;2023-06-10T19:04:12;3.35;;;2.28;;
66145;SDS011;52948;60.040;30.320;2023-06-10T19:09:14;3.25;;;1.40;;
66145;SDS011;52948;60.040;30.320;2023-06-10T19:14:16;3.00;;;1.88;;
66145;SDS011;52948;60.040;30.320;2023-06-10T19:19:19;2.95;;;1.48;;
66145;SDS011;52948;60.040;30.320;2023-06-10T19:24:21;3.13;;;1.98;;
66145;SDS011;52948;60.040;30.320;2023-06-10T19:29:23;4.63;;;2.03;;
66145;SDS011;52948;60.040;30.320;2023-06-10T19:34:26;3.80;;;1.70;;
66145;SDS011;52948;60.040;30.320;2023-06-10T19:39:28;3.95;;;1.60;;
66145;SDS011;52948;60.040;30.320;2023-06-10T19:44:30;3.60;;;1.52;;
66145;SDS011;52948;60.040;30.320;2023-06-10T19:49:32;3.20;;;1.55;;
66145;SDS011;52948;60.040;30.320;2023-06-10T19:54:35;3.55;;;2.70;;
66145;SDS011;52948;60.040;30.320;2023-06-10T19:59:37;8.82;;;3.40;;
66145;SDS011;52948;60.040;30.320;2023-06-10T20:04:40;5.88;;;2.92;;
66145;SDS011;52948;60.040;30.320;2023-06-10T20:09:42;7.15;;;2.63;;
66145;SDS011;52948;60.040;30.320;2023-06-10T20:14:45;3.35;;;2.60;;
66145;SDS011;52948;60.040;30.320;2023-06-10T20:19:47;4.97;;;2.90;;
66145;SDS011;52948;60.040;30.320;2023-06-10T20:24:54;9.32;;;5.30;;
66145;SDS011;52948;60.040;30.320;2023-06-10T20:29:56;6.22;;;3.47;;
66145;SDS011;52948;60.040;30.320;2023-06-10T20:34:58;11.93;;;4.63;;
66145;SDS011;52948;60.040;30.320;2023-06-10T20:40:00;11.68;;;4.70;;
66145;SDS011;52948;60.040;30.320;2023-06-10T20:45:03;5.60;;;4.03;;
66145;SDS011;52948;60.040;30.320;2023-06-10T20:50:05;6.47;;;4.07;;
66145;SDS011;52948;60.040;30.320;2023-06-10T20:55:08;8.95;;;3.80;;
66145;SDS011;52948;60.040;30.320;2023-06-10T21:00:10;10.48;;;4.35;;
66145;SDS011;52948;60.040;30.320;2023-06-10T21:05:13;7.47;;;3.80;;
66145;SDS011;52948;60.040;30.320;2023-06-10T21:10:15;5.38;;;3.20;;
66145;SDS011;52948;60.040;30.320;2023-06-10T21:15:18;6.25;;;3.25;;
66145;SDS011;52948;60.040;30.320;2023-06-10T21:20:20;9.00;;;3.42;;
66145;SDS011;52948;60.040;30.320;2023-06-10T21:25:22;10.90;;;3.67;;
66145;SDS011;52948;60.040;30.320;2023-06-10T21:30:24;5.25;;;3.22;;
66145;SDS011;52948;60.040;30.320;2023-06-10T21:35:27;8.23;;;3.08;;
66145;SDS011;52948;60.040;30.320;2023-06-10T21:40:29;5.55;;;3.00;;
66145;SDS011;52948;60.040;30.320;2023-06-10T21:45:32;4.75;;;2.65;;
66145;SDS011;52948;60.040;30.320;2023-06-10T21:50:34;8.10;;;3.35;;
66145;SDS011;52948;60.040;30.320;2023-06-10T21:55:37;4.45;;;2.58;;
66145;SDS011;52948;60.040;30.320;2023-06-10T22:00:39;3.95;;;2.80;;
66145;SDS011;52948;60.040;30.320;2023-06-10T22:05:41;5.13;;;2.55;;
66145;SDS011;52948;60.040;30.320;2023-06-10T22:10:44;4.47;;;2.45;;
66145;SDS011;52948;60.040;30.320;2023-06-10T22:15:46;3.17;;;2.30;;
66145;SDS011;52948;60.040;30.320;2023-06-10T22:20:49;4.18;;;2.75;;
66145;SDS011;52948;60.040;30.320;2023-06-10T22:25:51;6.22;;;4.07;;
66145;SDS011;52948;60.040;30.320;2023-06-10T22:30:53;6.55;;;3.20;;
66145;SDS011;52948;60.040;30.320;2023-06-10T22:35:57;4.72;;;3.13;;
66145;SDS011;52948;60.040;30.320;2023-06-10T22:40:59;5.22;;;2.97;;
66145;SDS011;52948;60.040;30.320;2023-06-10T22:46:01;7.15;;;3.55;;
66145;SDS011;52948;60.040;30.320;2023-06-10T22:51:04;3.47;;;2.55;;
66145;SDS011;52948;60.040;30.320;2023-06-10T22:56:07;5.72;;;3.08;;
66145;SDS011;52948;60.040;30.320;2023-06-10T23:01:09;5.22;;;2.97;;
66145;SDS011;52948;60.040;30.320;2023-06-10T23:06:12;3.45;;;2.30;;
66145;SDS011;52948;60.040;30.320;2023-06-10T23:11:14;7.50;;;3.00;;
66145;SDS011;52948;60.040;30.320;2023-06-10T23:16:16;5.68;;;3.47;;
66145;SDS011;52948;60.040;30.320;2023-06-10T23:21:19;5.68;;;2.75;;
66145;SDS011;52948;60.040;30.320;2023-06-10T23:26:22;5.88;;;3.97;;
66145;SDS011;52948;60.040;30.320;2023-06-10T23:31:24;5.65;;;3.30;;
66145;SDS011;52948;60.040;30.320;2023-06-10T23:36:27;9.70;;;3.92;;
66145;SDS011;52948;60.040;30.320;2023-06-10T23:41:30;8.73;;;4.63;;
66145;SDS011;52948;60.040;30.320;2023-06-10T23:46:35;8.30;;;5.10;;
66145;SDS011;52948;60.040;30.320;2023-06-10T23:51:38;6.72;;;3.88;;
66145;SDS011;52948;60.040;30.320;2023-06-10T23:56:40;8.32;;;4.25;;
